createdAt,value
2023-04-14T00:02:16.293Z,11.37
2023-04-14T00:06:27.314Z,12.63
2023-04-14T00:10:37.912Z,14.13
2023-04-14T00:14:46.993Z,12.10
2023-04-14T00:18:56.141Z,11.90
2023-04-14T00:23:05.182Z,11.67
2023-04-14T00:27:16.041Z,11.50
2023-04-14T00:31:25.091Z,9.43
2023-04-14T00:35:34.359Z,9.60
2023-04-14T00:39:43.370Z,8.10
2023-04-14T00:43:56.498Z,8.97
2023-04-14T00:48:05.756Z,8.70
2023-04-14T00:52:14.963Z,7.07
2023-04-14T00:56:24.358Z,10.07
2023-04-14T01:00:36.485Z,11.33
2023-04-14T01:04:53.816Z,12.53
2023-04-14T01:09:04.359Z,11.83
2023-04-14T01:13:25.364Z,9.83
2023-04-14T01:17:42.215Z,11.70
2023-04-14T01:21:56.654Z,14.83
2023-04-14T01:26:30.364Z,8.00
2023-04-14T01:30:56.176Z,8.27
2023-04-14T01:35:13.431Z,14.20
2023-04-14T01:39:26.837Z,10.13
2023-04-14T01:43:40.042Z,8.17
2023-04-14T01:47:50.705Z,11.77
2023-04-14T01:52:02.802Z,8.80
2023-04-14T01:56:14.496Z,7.70
2023-04-14T02:00:24.875Z,10.43
2023-04-14T02:04:35.977Z,5.60
2023-04-14T02:08:47.477Z,5.23
2023-04-14T02:12:59.653Z,6.17
2023-04-14T02:17:11.135Z,6.97
2023-04-14T02:21:22.250Z,6.97
2023-04-14T02:25:35.734Z,3.43
2023-04-14T02:29:48.929Z,5.30
2023-04-14T02:33:59.630Z,6.13
2023-04-14T02:38:15.810Z,8.63
2023-04-14T02:42:28.950Z,8.90
2023-04-14T02:46:42.358Z,3.37
2023-04-14T02:50:53.821Z,7.77
2023-04-14T02:55:05.505Z,7.33
2023-04-14T02:59:16.573Z,9.00
2023-04-14T03:03:27.010Z,8.07
2023-04-14T03:07:37.722Z,8.57
2023-04-14T03:11:48.136Z,11.30
2023-04-14T03:16:00.053Z,8.30
2023-04-14T03:20:10.293Z,11.53
2023-04-14T03:24:24.677Z,8.97
2023-04-14T03:28:38.042Z,19.73
2023-04-14T03:32:51.769Z,17.60
2023-04-14T03:37:02.171Z,15.83
2023-04-14T03:41:13.681Z,20.60
2023-04-14T03:45:24.190Z,18.00
2023-04-14T03:49:39.369Z,27.07
2023-04-14T03:53:49.596Z,29.57
2023-04-14T03:58:00.274Z,31.33
2023-04-14T04:02:10.689Z,29.37
2023-04-14T04:06:21.736Z,25.53
2023-04-14T04:10:34.493Z,27.87
2023-04-14T04:14:43.613Z,38.03
2023-04-14T04:18:53.453Z,43.30
2023-04-14T04:23:05.778Z,41.57
2023-04-14T04:27:27.125Z,39.47
2023-04-14T04:31:37.448Z,38.83
2023-04-14T04:35:47.790Z,33.03
2023-04-14T04:40:00.334Z,32.60
2023-04-14T04:44:10.055Z,31.40
2023-04-14T04:48:19.113Z,33.50
2023-04-14T04:52:28.089Z,49.23
2023-04-14T04:56:38.750Z,41.50
2023-04-14T05:00:47.717Z,40.17
2023-04-14T05:04:57.767Z,36.40
2023-04-14T05:09:07.062Z,41.60
2023-04-14T05:13:17.776Z,49.77
2023-04-14T05:17:27.460Z,47.70
2023-04-14T05:21:36.786Z,41.17
2023-04-14T05:25:47.507Z,39.77
2023-04-14T05:29:58.292Z,43.77
2023-04-14T05:34:07.339Z,42.47
2023-04-14T05:38:16.438Z,50.33
2023-04-14T05:42:25.521Z,24.87
2023-04-14T05:46:36.255Z,25.40
2023-04-14T05:50:45.447Z,18.47
2023-04-14T05:54:54.536Z,15.47
2023-04-14T05:59:03.605Z,19.93
2023-04-14T06:03:14.265Z,15.73
2023-04-14T06:07:23.379Z,14.37
2023-04-14T06:11:32.575Z,17.77
2023-04-14T06:15:41.762Z,11.77
2023-04-14T06:19:53.898Z,16.33
2023-04-14T06:24:03.045Z,19.10
2023-04-14T06:28:12.059Z,26.37
2023-04-14T06:32:21.540Z,23.63
2023-04-14T06:36:32.223Z,21.23
2023-04-14T06:40:41.267Z,22.67
2023-04-14T06:44:50.262Z,23.63
2023-04-14T06:48:59.710Z,25.00
2023-04-14T06:53:10.518Z,21.00
2023-04-14T06:57:20.046Z,24.70
2023-04-14T07:01:29.891Z,31.93
2023-04-14T07:05:38.896Z,32.40
2023-04-14T07:09:49.418Z,34.40
2023-04-14T07:13:58.684Z,31.90
2023-04-14T07:18:08.300Z,40.47
2023-04-14T07:22:20.111Z,42.43
2023-04-14T07:26:31.067Z,32.83
2023-04-14T07:30:40.614Z,31.13
2023-04-14T07:34:50.792Z,38.70
2023-04-14T07:39:00.238Z,29.00
2023-04-14T07:43:11.188Z,27.73
2023-04-14T07:47:20.210Z,25.20
2023-04-14T07:51:29.799Z,25.70
2023-04-14T07:55:38.912Z,32.50
2023-04-14T07:59:49.476Z,26.87
2023-04-14T08:03:58.777Z,27.23
2023-04-14T08:08:08.218Z,25.90
2023-04-14T08:12:17.373Z,29.57
2023-04-14T08:16:28.227Z,27.10
2023-04-14T08:20:38.291Z,28.87
2023-04-14T08:24:47.322Z,24.53
2023-04-14T08:28:56.549Z,20.53
2023-04-14T08:33:07.335Z,24.97
2023-04-14T08:37:17.211Z,20.17
2023-04-14T08:41:26.749Z,20.60
2023-04-14T08:45:35.925Z,28.13
2023-04-14T08:49:51.933Z,21.37
2023-04-14T08:54:02.033Z,19.10
2023-04-14T08:58:12.083Z,27.03
2023-04-14T09:02:22.091Z,32.40
2023-04-14T09:06:33.188Z,31.57
2023-04-14T09:10:43.084Z,23.07
2023-04-14T09:14:54.126Z,13.80
2023-04-14T09:19:07.051Z,9.00
2023-04-14T09:23:18.685Z,10.10
2023-04-14T09:27:28.905Z,16.17
2023-04-14T09:31:39.313Z,15.90
2023-04-14T09:35:50.745Z,17.17
2023-04-14T09:40:01.794Z,18.67
2023-04-14T09:44:10.930Z,30.70
2023-04-14T09:48:20.115Z,33.20
2023-04-14T09:52:40.674Z,31.77
2023-04-14T09:56:51.774Z,33.60
2023-04-14T10:01:01.128Z,36.37
2023-04-14T10:05:11.892Z,36.17
2023-04-14T10:09:23.713Z,43.90
2023-04-14T10:13:34.577Z,30.73
2023-04-14T10:17:44.055Z,35.07
2023-04-14T10:21:54.736Z,36.27
2023-04-14T10:26:05.332Z,31.93
2023-04-14T10:30:17.193Z,26.57
2023-04-14T10:34:27.773Z,20.17
2023-04-14T10:38:42.532Z,30.87
2023-04-14T10:42:56.239Z,20.37
2023-04-14T10:47:08.711Z,17.33
2023-04-14T10:51:19.869Z,22.53
2023-04-14T10:55:30.051Z,24.23
2023-04-14T10:59:43.829Z,18.63
2023-04-14T11:03:56.322Z,21.90
2023-04-14T11:08:15.778Z,18.90
2023-04-14T11:12:26.437Z,22.10
2023-04-14T11:16:36.397Z,25.90
2023-04-14T11:20:48.332Z,18.43
2023-04-14T11:24:57.369Z,23.00
2023-04-14T11:29:10.194Z,26.30
2023-04-14T11:33:19.175Z,19.07
2023-04-14T11:37:31.273Z,21.23
2023-04-14T11:41:40.693Z,27.53
2023-04-14T11:45:51.344Z,21.27
2023-04-14T11:50:05.676Z,25.07
2023-04-14T11:54:16.570Z,19.30
2023-04-14T11:58:28.330Z,14.50
2023-04-14T12:02:38.261Z,22.20
2023-04-14T12:06:47.739Z,18.03
2023-04-14T12:10:59.056Z,20.40
2023-04-14T12:15:09.611Z,24.60
2023-04-14T12:19:18.919Z,21.57
2023-04-14T12:23:28.142Z,19.33
2023-04-14T12:27:39.088Z,19.03
2023-04-14T12:31:48.219Z,22.10
2023-04-14T12:36:03.379Z,21.90
2023-04-14T12:40:12.832Z,23.27
2023-04-14T12:44:24.682Z,19.70
2023-04-14T12:48:43.956Z,19.37
2023-04-14T12:52:54.232Z,16.07
2023-04-14T12:57:04.262Z,16.13
2023-04-14T13:01:17.390Z,14.70
2023-04-14T13:05:26.887Z,14.70
2023-04-14T13:09:36.070Z,12.67
2023-04-14T13:13:45.971Z,11.30
2023-04-14T13:17:56.785Z,7.93
2023-04-14T13:22:05.977Z,6.07
2023-04-14T13:26:15.008Z,10.47
2023-04-14T13:30:24.248Z,8.17
2023-04-14T13:34:34.736Z,10.57
2023-04-14T13:38:44.072Z,13.03
2023-04-14T13:42:54.452Z,6.27
2023-04-14T13:47:03.913Z,5.90
2023-04-14T13:51:14.579Z,7.13
2023-04-14T13:55:23.960Z,9.67
2023-04-14T13:59:33.412Z,8.60
2023-04-14T14:03:43.339Z,7.20
2023-04-14T14:07:53.893Z,9.43
2023-04-14T14:12:03.132Z,7.43
2023-04-14T14:16:13.182Z,9.40
2023-04-14T14:20:24.059Z,7.87
2023-04-14T14:24:35.078Z,7.23
2023-04-14T14:28:44.845Z,10.77
2023-04-14T14:32:53.947Z,10.00
2023-04-14T14:37:03.649Z,8.93
2023-04-14T14:41:14.409Z,10.73
2023-04-14T14:45:30.605Z,10.87
2023-04-14T14:49:48.952Z,13.17
2023-04-14T14:54:10.232Z,11.00
2023-04-14T14:58:21.761Z,5.70
2023-04-14T15:02:31.179Z,7.10
2023-04-14T15:06:40.349Z,7.90
2023-04-14T15:10:49.575Z,6.47
2023-04-14T15:15:01.119Z,7.20
2023-04-14T15:19:10.370Z,7.03
2023-04-14T15:23:19.538Z,13.50
2023-04-14T15:27:28.682Z,7.23
2023-04-14T15:31:39.302Z,6.77
2023-04-14T15:35:48.477Z,8.80
2023-04-14T15:39:57.806Z,7.33
2023-04-14T15:44:07.102Z,10.27
2023-04-14T15:48:17.911Z,8.80
2023-04-14T15:52:27.666Z,7.13
2023-04-14T15:56:37.206Z,10.73
2023-04-14T16:00:46.224Z,11.53
2023-04-14T16:04:58.282Z,7.77
2023-04-14T16:09:07.541Z,7.10
2023-04-14T16:13:17.316Z,7.33
2023-04-14T16:17:26.464Z,6.77
2023-04-14T16:21:37.072Z,7.60
2023-04-14T16:25:50.733Z,8.60
2023-04-14T16:29:59.934Z,6.50
2023-04-14T16:34:10.376Z,6.30
2023-04-14T16:38:21.037Z,3.70
2023-04-14T16:42:30.331Z,7.10
2023-04-14T16:46:39.586Z,6.37
2023-04-14T16:50:48.993Z,7.37
2023-04-14T16:54:59.957Z,7.90
2023-04-14T16:59:10.330Z,6.67
2023-04-14T17:03:19.880Z,5.37
2023-04-14T17:07:29.222Z,6.13
2023-04-14T17:11:39.945Z,5.20
2023-04-14T17:16:05.724Z,7.43
2023-04-14T17:20:18.050Z,5.87
2023-04-14T17:24:27.311Z,8.30
2023-04-14T17:28:38.963Z,4.37
2023-04-14T17:32:49.235Z,3.97
2023-04-14T17:36:59.689Z,6.40
2023-04-14T17:41:11.650Z,8.90
2023-04-14T17:45:24.505Z,5.60
2023-04-14T17:49:34.185Z,6.23
2023-04-14T17:53:43.372Z,4.43
2023-04-14T17:57:53.111Z,7.83
2023-04-14T18:02:04.248Z,6.87
2023-04-14T18:06:13.784Z,6.93
2023-04-14T18:10:22.875Z,5.03
2023-04-14T18:14:32.425Z,6.27
2023-04-14T18:18:43.627Z,6.67
2023-04-14T18:22:53.752Z,5.77
2023-04-14T18:28:02.870Z,4.70
2023-04-14T18:31:33.366Z,7.37
2023-04-14T18:35:44.126Z,6.10
2023-04-14T18:39:53.300Z,6.07
2023-04-14T18:44:03.690Z,5.47
2023-04-14T18:48:13.289Z,7.23
2023-04-14T18:52:23.974Z,7.17
2023-04-14T18:56:33.084Z,5.80
2023-04-14T19:00:43.447Z,6.57
2023-04-14T19:04:56.205Z,4.07
2023-04-14T19:09:07.254Z,3.97
2023-04-14T19:13:16.469Z,5.20
2023-04-14T19:17:25.940Z,3.90
2023-04-14T19:21:35.638Z,3.40
2023-04-14T19:25:46.308Z,2.30
2023-04-14T19:29:56.888Z,3.83
2023-04-14T19:34:06.091Z,2.67
2023-04-14T19:38:15.849Z,4.40
2023-04-14T19:42:26.546Z,3.77
2023-04-14T19:46:36.779Z,4.33
2023-04-14T19:50:51.013Z,4.07
2023-04-14T19:55:00.688Z,4.07
2023-04-14T19:59:11.506Z,3.17
2023-04-14T20:03:21.409Z,3.10
2023-04-14T20:07:30.665Z,5.80
2023-04-14T20:11:39.868Z,4.27
2023-04-14T20:15:51.151Z,3.50
2023-04-14T20:20:01.789Z,3.20
2023-04-14T20:24:11.032Z,3.63
2023-04-14T20:28:20.476Z,3.77
2023-04-14T20:32:31.734Z,3.77
2023-04-14T20:36:40.793Z,3.40
2023-04-14T20:40:50.053Z,3.37
2023-04-14T20:44:59.437Z,3.23
2023-04-14T20:49:13.362Z,5.13
2023-04-14T20:53:23.253Z,3.77
2023-04-14T20:57:33.152Z,3.93
2023-04-14T21:01:42.962Z,3.93
2023-04-14T21:05:53.967Z,7.40
2023-04-14T21:10:03.092Z,2.27
2023-04-14T21:15:44.003Z,4.03
2023-04-14T21:18:41.298Z,4.30
2023-04-14T21:22:52.544Z,4.80
2023-04-14T21:27:02.196Z,4.73
2023-04-14T21:31:11.604Z,3.73
2023-04-14T21:35:20.830Z,3.73
2023-04-14T21:39:33.388Z,6.77
2023-04-14T21:43:42.539Z,2.97
2023-04-14T21:47:51.829Z,4.43
2023-04-14T21:52:01.110Z,7.37
2023-04-14T21:56:13.150Z,4.93
2023-04-14T22:00:22.254Z,3.63
2023-04-14T22:04:36.301Z,6.77
2023-04-14T22:08:46.293Z,7.17
2023-04-14T22:12:56.873Z,7.70
2023-04-14T22:17:05.927Z,4.73
2023-04-14T22:21:16.129Z,4.23
2023-04-14T22:25:25.172Z,5.07
2023-04-14T22:29:35.773Z,5.87
2023-04-14T22:33:44.763Z,7.10
2023-04-14T22:37:53.913Z,4.70
2023-04-14T22:42:02.927Z,2.67
2023-04-14T22:46:13.924Z,6.00
2023-04-14T22:50:23.191Z,6.60
2023-04-14T22:54:33.092Z,8.43
2023-04-14T22:58:42.153Z,7.10
2023-04-14T23:02:54.093Z,4.57
2023-04-14T23:07:03.370Z,5.57
2023-04-14T23:11:12.532Z,7.00
2023-04-14T23:15:21.749Z,6.00
2023-04-14T23:19:33.405Z,7.90
2023-04-14T23:23:43.472Z,5.93
2023-04-14T23:27:52.654Z,6.13
2023-04-14T23:32:01.713Z,6.77
2023-04-14T23:36:12.787Z,5.27
2023-04-14T23:40:22.871Z,5.73
2023-04-14T23:44:31.911Z,6.37
2023-04-14T23:48:40.972Z,4.67
2023-04-14T23:52:51.590Z,6.00
2023-04-14T23:57:00.681Z,6.83
